Time;durP1;ratioP1;P1;durP2;ratioP2;P2;SDS_P1;SDS_P2;PMS_P1;PMS_P2;Temp;Humidity;BMP_temperature;BMP_pressure;BME280_temperature;BME280_humidity;BME280_pressure;Samples;Min_cycle;Max_cycle;Signal;HPM_P1;HPM_P2
2022/09/03 00:01:53;;;;;;;;;10.67;8.67;;;;;23.36;54.38;100403.97;5113087;27;45702;-65
2022/09/03 00:04:31;;;;;;;;;11.33;9.33;;;;;23.36;54.21;100403.97;5132508;27;45006;-64
2022/09/03 00:07:02;;;;;;;;;5.00;5.00;;;;;23.33;54.07;100393.16;5119004;27;44985;-66
2022/09/03 00:09:41;;;;;;;;;7.67;7.67;;;;;23.36;54.12;100403.97;5111890;27;45015;-62
2022/09/03 00:12:23;;;;;;;;;12.33;8.33;;;;;23.36;54.18;100397.59;5122271;27;45524;-64
2022/09/03 00:15:11;;;;;;;;;9.67;8.00;;;;;23.36;54.42;100398.50;5120201;27;45041;-64
2022/09/03 00:17:46;;;;;;;;;5.33;5.33;;;;;23.37;54.34;100399.38;5117720;27;45248;-64
2022/09/03 00:20:26;;;;;;;;;9.33;9.00;;;;;23.36;54.83;100398.50;5116230;27;45281;-64
2022/09/03 00:22:54;;;;;;;;;7.00;7.00;;;;;23.34;54.66;100388.56;5114652;27;45670;-64
2022/09/03 00:25:48;;;;;;;;;8.33;7.33;;;;;23.36;55.17;100397.59;5114647;27;45131;-67
2022/09/03 00:28:19;;;;;;;;;11.33;8.67;;;;;23.36;55.02;100398.50;5119584;27;45052;-64
2022/09/03 00:30:52;;;;;;;;;8.67;8.67;;;;;23.37;55.42;100397.53;5120571;27;45224;-64
2022/09/03 00:33:22;;;;;;;;;7.33;7.00;;;;;23.39;55.18;100399.34;5117433;27;45648;-63
2022/09/03 00:36:02;;;;;;;;;9.67;8.33;;;;;23.39;55.39;100405.66;5115335;27;44999;-64
2022/09/03 00:38:30;;;;;;;;;15.00;9.67;;;;;23.38;55.32;100401.19;5113856;27;44975;-66
2022/09/03 00:41:19;;;;;;;;;6.00;6.00;;;;;23.38;55.34;100390.28;5116711;27;45482;-64
2022/09/03 00:44:09;;;;;;;;;10.00;8.00;;;;;23.32;55.17;100377.72;5119684;27;46390;-64
2022/09/03 00:46:52;;;;;;;;;9.67;9.00;;;;;23.19;55.15;100359.97;5118290;27;45004;-66
2022/09/03 00:49:38;;;;;;;;;6.00;6.00;;;;;23.34;55.68;100389.47;5118286;27;45207;-66
2022/09/03 00:52:20;;;;;;;;;11.00;11.00;;;;;23.29;55.45;100386.00;5114756;27;45205;-64
2022/09/03 00:55:14;;;;;;;;;7.00;5.00;;;;;23.28;55.43;100395.13;5116513;27;46133;-63
2022/09/03 00:57:48;;;;;;;;;4.00;3.00;;;;;23.24;55.88;100395.28;5116782;27;45075;-67
2022/09/03 01:00:18;;;;;;;;;5.33;4.67;;;;;23.09;55.78;100375.72;5118563;27;45151;-64
2022/09/03 01:02:55;;;;;;;;;7.00;4.67;;;;;22.94;55.61;100349.81;5113871;27;45036;-64
2022/09/03 01:05:24;;;;;;;;;5.33;5.33;;;;;23.19;55.64;100398.13;5118536;27;45640;-64
2022/09/03 01:08:18;;;;;;;;;8.00;6.00;;;;;23.15;55.99;100405.53;5117155;27;45258;-65
2022/09/03 01:10:51;;;;;;;;;5.67;5.00;;;;;23.12;56.15;100407.47;5116795;27;45348;-64
2022/09/03 01:13:26;;;;;;;;;6.33;6.33;;;;;23.11;56.05;100405.66;5119405;27;45318;-65
2022/09/03 01:16:06;;;;;;;;;7.00;6.00;;;;;23.11;55.71;100403.81;5114038;27;45331;-64
2022/09/03 01:19:05;;;;;;;;;5.33;5.33;;;;;23.07;55.95;100406.72;5113097;27;45282;-66
2022/09/03 01:22:07;;;;;;;;;7.33;6.00;;;;;23.07;55.89;100403.97;5114789;27;45189;-64
2022/09/03 01:24:52;;;;;;;;;7.00;7.00;;;;;23.03;56.18;100400.41;5117595;27;45099;-64
2022/09/03 01:27:29;;;;;;;;;6.00;6.00;;;;;23.02;55.75;100405.94;5111038;27;45180;-65
2022/09/03 01:30:15;;;;;;;;;6.33;4.67;;;;;22.87;56.35;100385.47;5110442;27;45308;-63
2022/09/03 01:32:56;;;;;;;;;9.33;5.00;;;;;22.95;56.10;100406.09;5117315;27;45251;-63
2022/09/03 01:35:39;;;;;;;;;5.33;5.33;;;;;22.93;56.26;100398.91;5112371;27;44944;-64
2022/09/03 01:38:32;;;;;;;;;6.33;6.00;;;;;22.92;56.18;100403.47;5118093;27;45639;-64
2022/09/03 01:44:52;;;;;;;;;7.67;5.00;;;;;22.78;56.43;100383.91;5087837;28;45290;-63
2022/09/03 01:47:26;;;;;;;;;6.33;4.67;;;;;22.89;56.23;100398.09;5083031;28;45390;-64
2022/09/03 01:50:16;;;;;;;;;8.67;7.33;;;;;22.90;56.27;100390.81;5113085;27;46486;-64
2022/09/03 01:52:54;;;;;;;;;5.00;5.00;;;;;22.30;56.28;100295.47;5116408;27;44870;-63
2022/09/03 01:55:29;;;;;;;;;5.00;5.00;;;;;22.92;56.32;100399.88;5115534;27;44889;-65
2022/09/03 01:58:10;;;;;;;;;7.67;5.33;;;;;22.85;56.39;100387.34;5113463;27;45299;-64
2022/09/03 02:00:42;;;;;;;;;6.67;5.00;;;;;22.85;56.99;100391.00;5119863;27;45265;-63
2022/09/03 02:03:10;;;;;;;;;5.33;5.33;;;;;22.85;56.51;100400.97;5115360;27;45476;-63
2022/09/03 02:05:35;;;;;;;;;5.00;4.00;;;;;22.66;56.56;100366.13;5122348;27;45139;-64
2022/09/03 02:08:08;;;;;;;;;7.00;7.00;;;;;22.83;56.13;100398.28;5123927;27;45244;-64
2022/09/03 02:10:42;;;;;;;;;7.33;5.00;;;;;22.82;56.25;100393.78;5123410;27;45626;-63
2022/09/03 02:13:14;;;;;;;;;5.33;5.33;;;;;22.83;56.15;100398.28;5129120;27;45153;-64
2022/09/03 02:15:44;;;;;;;;;4.33;4.33;;;;;22.79;56.52;100388.44;5119728;27;45243;-64
2022/09/03 02:18:16;;;;;;;;;7.00;6.00;;;;;22.80;56.64;100398.38;5117834;27;45045;-64
2022/09/03 02:20:42;;;;;;;;;2.67;2.67;;;;;22.80;56.99;100402.00;5118849;27;45730;-64
2022/09/03 02:23:08;;;;;;;;;4.33;4.33;;;;;22.84;56.75;100399.19;5118012;27;44978;-65
2022/09/03 02:25:38;;;;;;;;;6.00;6.00;;;;;22.82;56.90;100396.53;5117948;27;44987;-64
2022/09/03 02:28:06;;;;;;;;;8.50;6.50;;;;;22.82;57.31;100396.53;5116360;27;45010;-64
2022/09/03 02:30:32;;;;;;;;;6.00;6.00;;;;;22.78;57.26;100398.41;5132878;27;45216;-64
2022/09/03 02:32:58;;;;;;;;;4.33;4.33;;;;;22.78;57.53;100400.25;5128346;27;45027;-65
2022/09/03 02:35:24;;;;;;;;;4.00;4.00;;;;;22.79;57.49;100402.06;5121379;27;45103;-63
2022/09/03 02:37:49;;;;;;;;;7.33;5.00;;;;;22.74;57.75;100395.84;5117036;27;45114;-63
2022/09/03 02:40:16;;;;;;;;;9.67;4.33;;;;;22.65;57.91;100386.09;5126936;27;61896;-64
2022/09/03 02:42:41;;;;;;;;;7.67;5.33;;;;;22.69;58.10;100397.81;5121506;27;45063;-64
2022/09/03 02:45:28;;;;;;;;;4.67;4.67;;;;;22.65;58.18;100405.16;5122961;27;45136;-66
2022/09/03 02:47:58;;;;;;;;;5.67;4.67;;;;;22.60;58.50;100408.03;5125356;27;44907;-64
2022/09/03 02:50:25;;;;;;;;;8.33;7.00;;;;;22.49;58.59;100387.47;5118819;27;45543;-63
2022/09/03 02:52:50;;;;;;;;;5.00;5.00;;;;;22.52;59.09;100404.66;5122654;27;45035;-64
2022/09/03 02:55:16;;;;;;;;;6.00;4.67;;;;;22.49;59.45;100404.72;5118106;27;45035;-64
2022/09/03 02:57:42;;;;;;;;;8.67;7.33;;;;;22.48;59.52;100402.94;5122280;27;44943;-65
2022/09/03 03:00:08;;;;;;;;;7.00;7.00;;;;;22.43;60.01;100396.72;5116760;27;45289;-64
2022/09/03 03:02:33;;;;;;;;;7.67;7.00;;;;;22.43;60.03;100399.47;5122495;27;45097;-63
2022/09/03 03:04:59;;;;;;;;;10.00;5.67;;;;;22.15;60.09;100351.19;5121550;27;45036;-65
2022/09/03 03:07:25;;;;;;;;;7.00;6.00;;;;;22.43;60.24;100400.34;5117239;27;45045;-66
2022/09/03 03:09:50;;;;;;;;;9.00;8.00;;;;;22.43;60.25;100405.78;5124082;27;45553;-63
2022/09/03 03:12:16;;;;;;;;;18.00;15.67;;;;;22.27;60.37;100382.63;5121115;27;45128;-67
2022/09/03 03:14:42;;;;;;;;;8.00;7.33;;;;;22.27;60.30;100379.91;5120766;27;45158;-74
2022/09/03 03:17:07;;;;;;;;;7.67;7.33;;;;;22.08;60.72;100350.47;5119925;27;45273;-75
2022/09/03 03:19:33;;;;;;;;;6.33;6.00;;;;;22.35;60.83;100406.94;5116934;27;45710;-73
2022/09/03 03:21:58;;;;;;;;;4.33;4.33;;;;;22.20;61.20;100373.72;5118640;27;45095;-74
2022/09/03 03:24:23;;;;;;;;;8.00;8.00;;;;;21.97;61.03;100341.72;5117132;27;44930;-75
2022/09/03 03:26:49;;;;;;;;;11.67;7.33;;;;;22.31;61.17;100410.69;5114645;27;45160;-72
2022/09/03 03:29:16;;;;;;;;;8.00;8.00;;;;;22.28;61.26;100400.75;5119957;27;45158;-66
2022/09/03 03:31:42;;;;;;;;;9.67;8.00;;;;;22.23;61.31;100398.16;5121125;27;45387;-71
2022/09/03 03:34:07;;;;;;;;;8.67;6.67;;;;;21.78;61.50;100332.25;5116695;27;44915;-72
2022/09/03 03:36:34;;;;;;;;;9.00;8.00;;;;;22.18;61.63;100408.25;5112470;27;45530;-74
2022/09/03 03:39:00;;;;;;;;;12.00;8.67;;;;;22.04;62.11;100388.69;5113406;27;45345;-75
2022/09/03 03:41:34;;;;;;;;;6.67;6.67;;;;;22.01;62.11;100386.03;5124197;27;45205;-69
2022/09/03 03:44:05;;;;;;;;;9.67;8.00;;;;;22.07;62.49;100402.22;5118755;27;45330;-74
2022/09/03 03:46:48;;;;;;;;;11.67;11.33;;;;;21.69;62.71;100344.28;5122315;27;45047;-67
2022/09/03 03:49:13;;;;;;;;;8.67;8.67;;;;;21.85;63.10;100380.13;5118372;27;45168;-68
2022/09/03 03:51:39;;;;;;;;;8.33;7.67;;;;;21.93;63.29;100399.88;5119252;27;45034;-72
2022/09/03 03:54:05;;;;;;;;;6.67;6.00;;;;;21.93;63.32;100390.78;5115118;27;45047;-73
2022/09/03 03:56:31;;;;;;;;;10.67;9.67;;;;;21.94;63.18;100393.47;5117530;27;45044;-71
2022/09/03 03:58:58;;;;;;;;;10.33;9.00;;;;;21.78;63.21;100359.47;5115783;27;47764;-70
2022/09/03 04:01:25;;;;;;;;;9.67;8.00;;;;;22.01;62.97;100395.13;5116402;27;45189;-75
2022/09/03 04:03:53;;;;;;;;;9.67;9.67;;;;;22.03;62.88;100395.97;5124808;27;45129;-66
2022/09/03 04:06:19;;;;;;;;;7.67;7.67;;;;;21.82;62.89;100353.91;5121450;27;45153;-69
2022/09/03 04:08:47;;;;;;;;;7.00;7.00;;;;;22.06;62.73;100392.28;5123746;27;45723;-68
2022/09/03 04:11:16;;;;;;;;;13.00;9.00;;;;;21.90;62.87;100365.47;5117955;27;45445;-74
2022/09/03 04:13:43;;;;;;;;;12.67;8.00;;;;;21.97;63.02;100370.75;5128855;27;45029;-67
2022/09/03 04:16:16;;;;;;;;;8.67;6.67;;;;;22.11;62.71;100395.78;5121316;27;45149;-74
2022/09/03 04:18:41;;;;;;;;;8.00;8.00;;;;;22.01;63.11;100386.03;5116517;27;46469;-69
2022/09/03 04:21:10;;;;;;;;;9.00;8.00;;;;;21.96;63.01;100391.63;5116384;27;45152;-73
2022/09/03 04:23:38;;;;;;;;;9.00;8.00;;;;;22.00;63.62;100397.88;5113237;27;45312;-75
2022/09/03 04:26:04;;;;;;;;;7.67;7.67;;;;;21.95;63.34;100391.66;5112783;27;45039;-70
2022/09/03 04:28:30;;;;;;;;;8.67;7.00;;;;;21.87;63.36;100381.88;5114456;27;45401;-71
2022/09/03 04:31:01;;;;;;;;;8.00;6.67;;;;;21.76;63.33;100364.94;5118553;27;45026;-73
2022/09/03 04:33:26;;;;;;;;;10.33;7.00;;;;;21.89;63.42;100390.00;5128290;27;45202;-67
2022/09/03 04:35:51;;;;;;;;;8.67;8.67;;;;;21.90;63.44;100389.06;5117240;27;50027;-67
2022/09/03 04:38:17;;;;;;;;;9.00;7.67;;;;;21.84;63.36;100383.78;5113760;27;59899;-68
2022/09/03 04:40:42;;;;;;;;;9.00;8.00;;;;;21.69;63.20;100358.75;5121306;27;45173;-70
2022/09/03 04:43:08;;;;;;;;;6.67;6.67;;;;;21.94;63.36;100398.03;5119509;27;45173;-67
2022/09/03 04:45:33;;;;;;;;;10.00;8.67;;;;;21.81;63.14;100368.44;5118851;27;45220;-73
2022/09/03 04:48:02;;;;;;;;;11.00;8.67;;;;;21.85;63.51;100375.59;5122411;27;46982;-74
2022/09/03 04:50:29;;;;;;;;;7.67;7.00;;;;;21.99;63.38;100397.00;5114537;27;45099;-69
2022/09/03 04:52:59;;;;;;;;;10.67;9.33;;;;;21.92;63.27;100386.31;5117834;27;45240;-66
2022/09/03 04:55:24;;;;;;;;;12.33;9.33;;;;;21.84;63.48;100383.78;5116007;27;45016;-70
2022/09/03 04:57:50;;;;;;;;;9.00;8.33;;;;;21.93;63.56;100398.97;5116021;27;46217;-73
2022/09/03 05:00:17;;;;;;;;;10.67;8.00;;;;;21.60;63.55;100349.97;5112162;27;45549;-71
2022/09/03 05:02:47;;;;;;;;;4.33;4.33;;;;;21.95;63.54;100408.00;5110334;27;45333;-68
2022/09/03 05:05:13;;;;;;;;;10.33;8.00;;;;;21.82;63.28;100378.38;5120867;27;45073;-68
2022/09/03 05:07:38;;;;;;;;;12.00;10.67;;;;;21.63;63.16;100336.28;5118107;27;45323;-68
2022/09/03 05:10:08;;;;;;;;;7.67;6.33;;;;;21.88;63.26;100375.50;5121537;27;45497;-73
2022/09/03 05:12:34;;;;;;;;;9.67;7.00;;;;;21.86;63.24;100382.81;5113963;27;45046;-71
2022/09/03 05:15:00;;;;;;;;;13.67;10.67;;;;;21.89;63.12;100380.03;5119278;27;45099;-72
2022/09/03 05:17:28;;;;;;;;;13.00;11.33;;;;;21.98;62.75;100399.75;5115148;27;45541;-71
2022/09/03 05:19:53;;;;;;;;;12.67;9.67;;;;;22.01;63.09;100402.38;5115190;27;45101;-72
2022/09/03 05:22:21;;;;;;;;;9.33;9.00;;;;;21.89;63.08;100377.31;5111511;27;56532;-74
2022/09/03 05:24:50;;;;;;;;;11.33;8.00;;;;;22.03;63.08;100405.97;5127227;27;45431;-67
2022/09/03 05:27:16;;;;;;;;;9.00;7.67;;;;;22.02;63.26;100415.03;5110250;27;45251;-72
2022/09/03 05:29:42;;;;;;;;;11.33;8.67;;;;;21.98;63.15;100411.53;5110170;27;45019;-69
2022/09/03 05:32:08;;;;;;;;;11.67;9.00;;;;;21.97;63.20;100403.41;5120164;27;45227;-71
2022/09/03 05:34:33;;;;;;;;;9.67;6.67;;;;;21.79;63.40;100389.31;5110750;27;45293;-75
2022/09/03 05:36:58;;;;;;;;;8.33;8.33;;;;;21.71;63.30;100386.84;5112965;27;45649;-75
2022/09/03 05:39:24;;;;;;;;;7.00;7.00;;;;;21.71;63.58;100389.56;5125443;27;45408;-72
2022/09/03 05:41:51;;;;;;;;;6.33;6.33;;;;;21.72;63.47;100380.44;5121827;27;45258;-73
2022/09/03 05:44:16;;;;;;;;;14.00;9.00;;;;;21.84;62.92;100403.69;5127194;27;45245;-76
2022/09/03 05:46:41;;;;;;;;;7.00;6.33;;;;;21.76;63.30;100396.69;5113786;27;46033;-77
2022/09/03 05:49:07;;;;;;;;;11.00;7.33;;;;;21.67;63.25;100381.50;5114646;27;45128;-69
2022/09/03 05:51:34;;;;;;;;;10.33;8.00;;;;;21.87;63.91;100428.09;5116577;27;44963;-76
2022/09/03 05:53:59;;;;;;;;;9.00;8.00;;;;;21.90;63.84;100429.88;5113283;27;45230;-75
2022/09/03 05:56:27;;;;;;;;;7.33;5.67;;;;;21.91;63.49;100431.66;5132929;27;45612;-75
2022/09/03 05:58:55;;;;;;;;;7.00;7.00;;;;;21.93;63.41;100437.94;5116690;27;45268;-73
2022/09/03 06:01:23;;;;;;;;;6.67;6.33;;;;;21.76;63.22;100410.28;5111113;27;45388;-77
2022/09/03 06:04:10;;;;;;;;;9.00;5.00;;;;;21.95;63.28;100443.34;5113259;27;45326;-69
2022/09/03 06:06:38;;;;;;;;;8.00;7.00;;;;;21.96;63.27;100446.03;5120357;27;45657;-75
2022/09/03 06:09:06;;;;;;;;;9.33;7.67;;;;;21.94;63.43;100460.59;5114288;27;44967;-72
2022/09/03 06:11:34;;;;;;;;;10.33;8.33;;;;;21.88;63.60;100456.22;5117049;27;45454;-69
2022/09/03 06:14:00;;;;;;;;;10.33;8.00;;;;;21.87;63.45;100463.47;5117708;27;45150;-71
2022/09/03 06:16:27;;;;;;;;;9.00;7.33;;;;;21.80;63.22;100442.81;5119760;27;45080;-72
2022/09/03 06:18:53;;;;;;;;;12.33;12.33;;;;;21.80;63.10;100431.03;5114604;27;45280;-76
2022/09/03 06:21:18;;;;;;;;;8.33;8.33;;;;;21.98;62.82;100462.31;5111517;27;45024;-69
2022/09/03 06:23:51;;;;;;;;;7.67;7.00;;;;;22.05;62.87;100461.22;5111973;27;45086;-69
2022/09/03 06:26:18;;;;;;;;;10.33;9.33;;;;;22.01;62.87;100451.34;5122926;27;47600;-71
2022/09/03 06:28:44;;;;;;;;;12.00;8.00;;;;;21.97;62.92;100455.97;5114360;27;45180;-75
2022/09/03 06:31:12;;;;;;;;;11.33;10.33;;;;;22.03;62.70;100468.53;5131749;27;45279;-73
2022/09/03 06:33:39;;;;;;;;;13.67;13.33;;;;;21.83;63.33;100448.16;5127580;27;45162;-72
2022/09/03 06:36:07;;;;;;;;;13.33;8.00;;;;;22.00;63.05;100468.59;5115783;27;45809;-74
2022/09/03 06:38:37;;;;;;;;;8.00;8.00;;;;;21.94;63.11;100468.75;5123138;27;45085;-76
2022/09/03 06:41:09;;;;;;;;;9.33;8.00;;;;;21.85;63.46;100470.78;5121750;27;45183;-74
2022/09/03 06:43:37;;;;;;;;;8.33;7.00;;;;;21.66;63.92;100455.84;5118149;27;45051;-76
2022/09/03 06:46:11;;;;;;;;;10.33;10.33;;;;;21.78;63.71;100470.94;5120512;27;45716;-75
2022/09/03 06:48:38;;;;;;;;;14.33;10.67;;;;;21.84;63.56;100477.13;5117489;27;45058;-73
2022/09/03 06:51:06;;;;;;;;;13.00;10.33;;;;;21.61;63.47;100445.06;5125201;27;45160;-74
2022/09/03 06:53:34;;;;;;;;;7.33;6.00;;;;;21.76;63.52;100487.31;5122758;27;45075;-71
2022/09/03 06:56:05;;;;;;;;;8.00;8.00;;;;;21.58;63.75;100455.13;5126302;27;45113;-68
2022/09/03 06:58:41;;;;;;;;;18.33;12.33;;;;;21.65;63.51;100471.25;5124891;27;44952;-71
2022/09/03 07:01:18;;;;;;;;;14.00;11.33;;;;;21.68;63.63;100481.19;5116006;27;44964;-72
2022/09/03 07:03:45;;;;;;;;;8.33;7.67;;;;;21.52;63.42;100448.03;5121846;27;45135;-74
2022/09/03 07:06:20;;;;;;;;;13.33;8.67;;;;;21.70;63.34;100485.63;5120829;27;45205;-73
2022/09/03 07:08:45;;;;;;;;;11.33;10.33;;;;;21.38;63.26;100425.66;5127784;27;45161;-77
2022/09/03 07:11:15;;;;;;;;;9.67;8.33;;;;;21.51;63.32;100416.31;5122434;27;45378;-75
2022/09/03 07:13:43;;;;;;;;;11.00;9.67;;;;;21.66;62.56;100439.53;5130797;27;44933;-72
2022/09/03 07:16:19;;;;;;;;;11.33;10.00;;;;;21.71;62.67;100440.28;5125441;27;45761;-75
2022/09/03 07:18:45;;;;;;;;;11.67;9.00;;;;;21.97;62.48;100471.41;5123980;27;44896;-77
2022/09/03 07:21:13;;;;;;;;;18.33;14.00;;;;;22.00;62.16;100474.94;5126778;27;46136;-69
2022/09/03 07:23:39;;;;;;;;;11.00;10.33;;;;;22.01;61.81;100474.00;5117061;27;45008;-76
2022/09/03 07:26:11;;;;;;;;;7.33;7.33;;;;;21.80;61.75;100442.81;5115458;27;45762;-73
2022/09/03 07:28:38;;;;;;;;;10.67;10.33;;;;;22.03;61.85;100487.56;5125820;27;45420;-76
2022/09/03 07:31:13;;;;;;;;;13.00;8.00;;;;;21.99;61.55;100484.06;5124955;27;45108;-71
2022/09/03 07:33:39;;;;;;;;;11.00;7.67;;;;;22.04;61.50;100482.09;5128185;27;45366;-69
2022/09/03 07:36:07;;;;;;;;;7.33;6.67;;;;;21.93;61.39;100461.50;5127244;27;46097;-80
2022/09/03 07:38:33;;;;;;;;;8.33;7.67;;;;;22.09;61.02;100492.84;5118853;27;45208;-69
2022/09/03 07:41:01;;;;;;;;;5.00;5.00;;;;;22.12;60.99;100491.88;5127091;27;44971;-70
2022/09/03 07:43:28;;;;;;;;;9.00;9.00;;;;;22.23;61.00;100498.84;5121193;27;45207;-67
2022/09/03 07:45:55;;;;;;;;;8.00;7.00;;;;;22.31;60.50;100493.22;5119300;27;45311;-69
2022/09/03 07:48:21;;;;;;;;;8.00;7.67;;;;;22.30;59.97;100486.00;5117499;27;44950;-71
2022/09/03 07:50:47;;;;;;;;;8.33;7.33;;;;;22.22;60.24;100461.69;5118201;27;44923;-76
2022/09/03 07:53:14;;;;;;;;;8.33;7.33;;;;;22.43;59.90;100489.28;5119719;27;45697;-73
2022/09/03 07:55:40;;;;;;;;;11.33;6.67;;;;;22.50;59.81;100487.28;5116928;27;45148;-75
2022/09/03 07:58:06;;;;;;;;;8.00;8.00;;;;;22.68;59.45;100502.22;5117242;27;44884;-71
2022/09/03 08:00:32;;;;;;;;;5.67;4.67;;;;;22.65;59.20;100467.78;5117764;27;44989;-75
2022/09/03 08:03:04;;;;;;;;;9.00;8.33;;;;;22.90;58.88;100492.53;5128709;27;45296;-77
2022/09/03 08:05:31;;;;;;;;;8.00;6.67;;;;;22.93;58.50;100486.09;5123176;27;45557;-71
2022/09/03 08:07:59;;;;;;;;;11.00;7.67;;;;;23.02;57.78;100498.56;5113798;27;45229;-77
2022/09/03 08:10:27;;;;;;;;;8.33;7.33;;;;;23.05;58.16;100490.28;5118001;27;45125;-72
2022/09/03 08:12:52;;;;;;;;;10.00;8.67;;;;;23.10;57.41;100475.63;5114630;27;45455;-72
2022/09/03 08:15:17;;;;;;;;;8.00;7.00;;;;;23.30;56.90;100507.72;5119339;27;45683;-73
2022/09/03 08:17:43;;;;;;;;;11.67;8.33;;;;;23.34;56.66;100503.94;5116492;27;45079;-75
2022/09/03 08:20:09;;;;;;;;;6.00;6.00;;;;;23.17;56.17;100468.16;5118629;27;44987;-76
2022/09/03 08:22:36;;;;;;;;;8.67;5.33;;;;;23.00;55.93;100445.00;5116071;27;44987;-77
2022/09/03 08:25:01;;;;;;;;;6.33;6.33;;;;;23.34;55.90;100509.41;5115284;27;46232;-77
2022/09/03 08:27:27;;;;;;;;;5.67;5.67;;;;;23.34;55.78;100493.06;5114988;27;45066;-71
2022/09/03 08:29:53;;;;;;;;;9.00;7.00;;;;;23.19;55.74;100461.69;5125332;27;45175;-76
2022/09/03 08:32:18;;;;;;;;;11.00;9.00;;;;;23.54;55.45;100519.72;5124405;27;45518;-79
2022/09/03 08:34:44;;;;;;;;;9.00;6.33;;;;;23.31;55.26;100484.06;5124875;27;46014;-68
2022/09/03 08:37:09;;;;;;;;;7.33;7.33;;;;;23.54;55.43;100524.25;5114432;27;44978;-77
2022/09/03 08:39:35;;;;;;;;;7.33;7.33;;;;;23.59;55.62;100525.00;5127180;27;45135;-70
2022/09/03 08:42:08;;;;;;;;;5.33;5.33;;;;;23.63;55.29;100534.03;5113764;27;53803;-78
2022/09/03 08:44:55;;;;;;;;;8.00;7.00;;;;;23.65;55.77;100523.94;5126695;27;45645;-77
2022/09/03 08:47:35;;;;;;;;;9.00;8.00;;;;;23.69;55.63;100532.00;5118269;27;45262;-78
2022/09/03 08:50:22;;;;;;;;;7.00;5.00;;;;;23.70;55.47;100531.03;5126061;27;45206;-71
2022/09/03 08:53:03;;;;;;;;;6.33;6.00;;;;;23.49;55.74;100502.59;5120529;27;45424;-78
2022/09/03 08:55:32;;;;;;;;;7.67;6.00;;;;;23.69;55.87;100537.44;5118300;27;45379;-78
2022/09/03 08:58:09;;;;;;;;;7.00;6.67;;;;;23.61;55.97;100517.69;5116243;27;45119;-66
2022/09/03 09:01:00;;;;;;;;;3.67;3.67;;;;;23.71;55.52;100521.03;5113891;27;45097;-73
2022/09/03 09:03:59;;;;;;;;;6.33;4.00;;;;;23.94;55.14;100546.69;5120126;27;45224;-77
2022/09/03 09:06:39;;;;;;;;;4.00;4.00;;;;;23.99;54.50;100550.16;5117197;27;45743;-77
2022/09/03 09:09:04;;;;;;;;;5.33;5.00;;;;;24.08;54.10;100549.88;5116945;27;45201;-74
2022/09/03 09:11:57;;;;;;;;;4.00;4.00;;;;;23.86;53.73;100500.59;5119837;27;45198;-68
2022/09/03 09:14:40;;;;;;;;;5.00;4.33;;;;;24.24;53.99;100551.16;5116908;27;45189;-78
2022/09/03 09:17:08;;;;;;;;;6.00;3.33;;;;;24.33;53.83;100552.69;5116171;27;45348;-68
2022/09/03 09:19:51;;;;;;;;;6.00;6.00;;;;;24.39;53.54;100540.66;5114875;27;45203;-71
2022/09/03 09:22:28;;;;;;;;;8.67;6.33;;;;;24.49;53.18;100533.06;5118694;27;45086;-72
2022/09/03 09:24:58;;;;;;;;;7.67;5.67;;;;;24.65;52.69;100545.25;5117150;27;44977;-71
2022/09/03 09:27:23;;;;;;;;;7.00;6.00;;;;;24.74;52.65;100522.19;5109709;27;46354;-70
2022/09/03 09:29:51;;;;;;;;;6.00;6.00;;;;;24.92;52.09;100515.16;5119124;27;45143;-71
2022/09/03 09:32:18;;;;;;;;;6.00;6.00;;;;;25.26;50.87;100541.22;5123414;27;45188;-73
2022/09/03 09:34:44;;;;;;;;;4.33;4.00;;;;;25.33;50.81;100538.22;5113716;27;45169;-68
2022/09/03 09:37:14;;;;;;;;;5.67;5.00;;;;;25.34;50.99;100529.09;5111596;27;45219;-75
2022/09/03 09:39:52;;;;;;;;;4.67;3.33;;;;;25.58;50.44;100539.13;5120073;27;45153;-77
2022/09/03 09:42:20;;;;;;;;;4.00;3.67;;;;;25.68;49.94;100543.28;5116522;27;45044;-73
2022/09/03 09:44:46;;;;;;;;;6.33;4.00;;;;;25.64;49.09;100526.09;5117738;27;45583;-75
2022/09/03 09:47:19;;;;;;;;;5.67;4.33;;;;;25.77;49.28;100545.63;5115462;27;47427;-74
2022/09/03 09:49:45;;;;;;;;;3.00;3.00;;;;;25.72;49.24;100553.13;5118710;27;45035;-66
2022/09/03 09:52:13;;;;;;;;;5.00;3.00;;;;;25.56;49.07;100533.72;5114873;27;45397;-75
2022/09/03 09:54:41;;;;;;;;;3.00;3.00;;;;;25.52;49.72;100552.09;5116741;27;45542;-75
2022/09/03 09:57:17;;;;;;;;;3.67;3.00;;;;;25.24;50.38;100534.91;5121053;27;45022;-75
2022/09/03 09:59:43;;;;;;;;;3.33;2.67;;;;;25.15;50.63;100555.31;5112817;27;45251;-69
2022/09/03 10:02:13;;;;;;;;;5.00;3.00;;;;;24.96;51.20;100547.78;5109660;27;45216;-70
2022/09/03 10:04:42;;;;;;;;;6.00;6.00;;;;;24.63;52.08;100518.00;5119068;27;45476;-71
2022/09/03 10:07:23;;;;;;;;;5.67;4.67;;;;;24.37;52.41;100466.09;5117736;27;45621;-73
2022/09/03 10:10:22;;;;;;;;;3.00;3.00;;;;;24.87;52.87;100553.56;5115041;27;45204;-68
2022/09/03 10:13:11;;;;;;;;;9.00;6.00;;;;;24.94;52.19;100554.25;5096437;27;45567;-73
2022/09/03 10:15:55;;;;;;;;;5.67;4.00;;;;;25.02;51.30;100560.31;5114279;27;45568;-72
2022/09/03 10:18:44;;;;;;;;;5.33;5.33;;;;;25.09;51.63;100559.13;5102711;27;46388;-80
2022/09/03 10:21:36;;;;;;;;;4.00;3.00;;;;;25.11;51.23;100556.34;5105193;27;45363;-73
2022/09/03 10:24:29;;;;;;;;;3.33;3.33;;;;;25.26;51.03;100558.53;5120497;27;44989;-77
2022/09/03 10:26:54;;;;;;;;;5.00;3.67;;;;;25.48;50.45;100568.69;5118191;27;45145;-76
2022/09/03 10:29:24;;;;;;;;;4.33;4.00;;;;;25.54;49.26;100568.41;5112938;27;45833;-76
2022/09/03 10:32:08;;;;;;;;;3.00;3.00;;;;;25.50;49.30;100575.84;5112042;27;45345;-76
2022/09/03 10:34:46;;;;;;;;;4.33;4.00;;;;;25.29;49.49;100557.53;5122514;27;44944;-74
2022/09/03 10:37:48;;;;;;;;;3.00;3.00;;;;;25.27;50.17;100576.72;5118371;27;45116;-72
2022/09/03 10:40:30;;;;;;;;;3.33;3.33;;;;;25.19;50.94;100585.22;5102903;27;46203;-71
2022/09/03 10:43:17;;;;;;;;;7.00;5.67;;;;;25.19;50.96;100578.81;5107810;27;45473;-73
2022/09/03 10:45:50;;;;;;;;;6.00;6.00;;;;;25.25;51.16;100581.34;5102329;27;45468;-67
2022/09/03 10:48:18;;;;;;;;;6.33;3.33;;;;;25.23;50.20;100580.50;5111338;27;45306;-79
2022/09/03 10:50:51;;;;;;;;;7.00;5.00;;;;;25.12;50.34;100593.69;5100385;27;45419;-74
2022/09/03 10:53:33;;;;;;;;;7.33;6.00;;;;;25.09;50.60;100586.47;5099678;27;45411;-77
2022/09/03 10:56:31;;;;;;;;;6.33;5.33;;;;;25.08;50.45;100584.72;5102737;27;45475;-69
2022/09/03 10:59:21;;;;;;;;;6.67;5.67;;;;;25.08;50.36;100583.78;5106438;27;45439;-72
2022/09/03 11:02:10;;;;;;;;;4.00;4.00;;;;;25.05;50.55;100573.88;5114805;27;46940;-74
2022/09/03 11:04:56;;;;;;;;;4.33;4.33;;;;;25.07;49.42;100582.03;5103676;27;45399;-70
2022/09/03 11:07:30;;;;;;;;;3.33;3.33;;;;;24.88;49.11;100549.00;5103837;27;45499;-74
2022/09/03 11:09:59;;;;;;;;;5.00;3.67;;;;;25.11;49.79;100581.88;5102798;27;45474;-69
2022/09/03 11:12:33;;;;;;;;;3.67;3.33;;;;;25.12;49.09;100567.22;5101793;27;45808;-71
2022/09/03 11:15:40;;;;;;;;;7.33;7.33;;;;;25.29;49.22;100566.66;5102207;27;45336;-76
2022/09/03 11:18:32;;;;;;;;;4.00;4.00;;;;;25.26;49.23;100552.16;5100826;27;45435;-72
2022/09/03 11:21:03;;;;;;;;;5.00;5.00;;;;;25.33;49.08;100549.16;5095686;27;45669;-69
2022/09/03 11:23:32;;;;;;;;;3.00;3.00;;;;;25.37;48.60;100560.88;5112281;27;46203;-72
2022/09/03 11:26:01;;;;;;;;;2.00;2.00;;;;;25.22;48.88;100545.91;5111560;27;45404;-68
2022/09/03 11:28:44;;;;;;;;;6.00;5.33;;;;;25.36;49.07;100570.03;5116710;27;45462;-74
2022/09/03 11:31:16;;;;;;;;;4.67;3.67;;;;;25.48;48.69;100572.31;5102103;27;45448;-69
2022/09/03 11:33:48;;;;;;;;;3.67;3.67;;;;;25.47;48.68;100575.09;5110272;27;46964;-71
2022/09/03 11:36:26;;;;;;;;;2.67;2.67;;;;;25.44;48.59;100567.00;5098599;27;45220;-70
2022/09/03 11:38:52;;;;;;;;;4.33;4.00;;;;;25.43;48.60;100562.50;5107886;27;45357;-75
2022/09/03 11:41:26;;;;;;;;;3.67;3.67;;;;;25.16;48.37;100511.50;5111722;27;45451;-69
2022/09/03 11:43:53;;;;;;;;;7.33;5.67;;;;;25.56;48.42;100578.38;5102570;27;45696;-77
2022/09/03 11:46:21;;;;;;;;;4.00;3.67;;;;;25.64;48.16;100563.47;5114095;27;45253;-75
2022/09/03 11:48:49;;;;;;;;;6.67;6.67;;;;;25.20;47.77;100488.53;5119632;27;45050;-76